PWSweather.com
Personal Weather Stations
Station Observations
SHAHALMS1
Eftra, Falkenberg, HA

EftraFalkenberg, HA

Lat: 56.85, Lon: 12.65

Elevation: 140

Station Type:

http://hem.passagen.se/risarp101

High Low Average
Temperature 51.8°F11.0°F 49.1°F9.5°F 50.2°F10.1°F
Dew Point 49.3°F9.6°F 44.5°F6.9°F 47.0°F8.3°F
Winds 16.3 mph NNE26.2 mph NNE Calm Calm 6.7 mph 10.8 mph
Wind Gusts 24.3 mph39.1 mph -- 8.4 mph13.5 mph
Humidity 96% 82% 89%
Pressure 29.89 in1012.20 in 29.77 in1008.10 in -
Precipitation 0.16 in4.10 in - -
Hour Temp Dew Point Humidity Winds Wind Gusts Pressure Precip Precip Rate Daily Precip Total
12:00 AM 50.4°F10.2°C 49.3°F9.6°C 96% 10.5 mph E16.9 kmh E 12.9 mph20.8 kmh 29.80 in1009.1 mb 0.00 in0.0 mm 0.00 in0.0 mm 0.00 in0.0 mm
12:15 AM 50.4°F10.2°C 49.3°F9.6°C 96% 10.2 mph E16.4 kmh E 12.5 mph20.1 kmh 29.80 in1009.1 mb 0.00 in0.0 mm 0.00 in0.0 mm 0.00 in0.0 mm
12:30 AM 50.4°F10.2°C 49.3°F9.6°C 96% 14.5 mph E23.3 kmh E 24.3 mph39.1 kmh 29.77 in1008.1 mb 0.00 in0.0 mm 0.00 in0.0 mm 0.00 in0.0 mm
12:45 AM 50.4°F10.2°C 49.3°F9.6°C 96% 11.6 mph NE18.7 kmh NE 14.3 mph23.0 kmh 29.80 in1009.1 mb 0.00 in0.0 mm 0.00 in0.0 mm 0.00 in0.0 mm
01:00 AM 50.4°F10.2°C 49.3°F9.6°C 96% 16.3 mph NNE26.2 kmh NNE 20.0 mph32.2 kmh 29.80 in1009.1 mb 0.00 in0.0 mm 0.00 in0.0 mm 0.00 in0.0 mm
01:15 AM 50.4°F10.2°C 49.3°F9.6°C 96% 9.6 mph NE15.4 kmh NE 11.8 mph19.0 kmh 29.77 in1008.1 mb 0.00 in0.0 mm 0.00 in0.0 mm 0.00 in0.0 mm
01:30 AM 50.4°F10.2°C 49.3°F9.6°C 96% 9.6 mph NE15.4 kmh NE 11.8 mph19.0 kmh 29.77 in1008.1 mb 0.00 in0.0 mm 0.00 in0.0 mm 0.00 in0.0 mm
01:45 AM 50.4°F10.2°C 49.3°F9.6°C 96% 9.6 mph NE15.4 kmh NE 11.8 mph19.0 kmh 29.80 in1009.1 mb 0.00 in0.0 mm 0.00 in0.0 mm 0.00 in0.0 mm
02:00 AM 50.2°F10.1°C 49.1°F9.5°C 96% 9.6 mph NE15.4 kmh NE 11.8 mph19.0 kmh 29.77 in1008.1 mb 0.04 in1.0 mm 0.05 in1.3 mm 0.04 in1.0 mm
02:15 AM 50.2°F10.1°C 49.1°F9.5°C 96% 9.6 mph NE15.4 kmh NE 11.8 mph19.0 kmh 29.80 in1009.1 mb 0.04 in1.0 mm 0.00 in0.0 mm 0.04 in1.0 mm
02:30 AM 50.2°F10.1°C 49.1°F9.5°C 96% 9.6 mph NE15.4 kmh NE 11.8 mph19.0 kmh 29.80 in1009.1 mb 0.04 in1.0 mm 0.00 in0.0 mm 0.04 in1.0 mm
02:45 AM 50.0°F10.0°C 48.9°F9.4°C 96% 9.6 mph NE15.4 kmh NE 11.8 mph19.0 kmh 29.80 in1009.1 mb 0.04 in1.0 mm 0.00 in0.0 mm 0.04 in1.0 mm
03:00 AM 50.0°F10.0°C 48.9°F9.4°C 96% 9.6 mph NE15.4 kmh NE 11.8 mph19.0 kmh 29.80 in1009.1 mb 0.00 in0.0 mm 0.00 in0.0 mm 0.04 in1.0 mm
03:15 AM 50.0°F10.0°C 48.9°F9.4°C 96% 9.6 mph NE15.4 kmh NE 11.8 mph19.0 kmh 29.80 in1009.1 mb 0.00 in0.0 mm 0.00 in0.0 mm 0.04 in1.0 mm
03:30 AM 50.0°F10.0°C 48.9°F9.4°C 96% 9.6 mph NE15.4 kmh NE 11.8 mph19.0 kmh 29.80 in1009.1 mb 0.00 in0.0 mm 0.00 in0.0 mm 0.04 in1.0 mm
03:45 AM 50.0°F10.0°C 48.6°F9.2°C 95% 9.6 mph NE15.4 kmh NE 11.8 mph19.0 kmh 29.80 in1009.1 mb 0.00 in0.0 mm 0.00 in0.0 mm 0.04 in1.0 mm
04:00 AM 49.8°F9.9°C 48.4°F9.1°C 95% 9.6 mph NE15.4 kmh NE 11.8 mph19.0 kmh 29.80 in1009.1 mb 0.00 in0.0 mm 0.00 in0.0 mm 0.04 in1.0 mm
04:15 AM 49.8°F9.9°C 48.4°F9.1°C 95% 9.6 mph NE15.4 kmh NE 11.8 mph19.0 kmh 29.80 in1009.1 mb 0.00 in0.0 mm 0.00 in0.0 mm 0.04 in1.0 mm
04:30 AM 49.8°F9.9°C 48.4°F9.1°C 95% 9.6 mph NE15.4 kmh NE 11.8 mph19.0 kmh 29.80 in1009.1 mb 0.00 in0.0 mm 0.00 in0.0 mm 0.04 in1.0 mm
04:45 AM 49.8°F9.9°C 48.4°F9.1°C 95% 9.6 mph NE15.4 kmh NE 11.8 mph19.0 kmh 29.80 in1009.1 mb 0.00 in0.0 mm 0.00 in0.0 mm 0.04 in1.0 mm
05:00 AM 49.8°F9.9°C 48.4°F9.1°C 95% 9.6 mph NE15.4 kmh NE 11.8 mph19.0 kmh 29.80 in1009.1 mb 0.00 in0.0 mm 0.00 in0.0 mm 0.04 in1.0 mm
05:15 AM 49.8°F9.9°C 48.4°F9.1°C 95% 9.6 mph NE15.4 kmh NE 11.8 mph19.0 kmh 29.80 in1009.1 mb 0.00 in0.0 mm 0.00 in0.0 mm 0.04 in1.0 mm
05:30 AM 49.6°F9.8°C 48.0°F8.9°C 94% 9.6 mph NE15.4 kmh NE 11.8 mph19.0 kmh 29.80 in1009.1 mb 0.00 in0.0 mm 0.00 in0.0 mm 0.04 in1.0 mm
05:45 AM 49.6°F9.8°C 48.0°F8.9°C 94% 9.6 mph NE15.4 kmh NE 11.8 mph19.0 kmh 29.80 in1009.1 mb 0.00 in0.0 mm 0.00 in0.0 mm 0.04 in1.0 mm
06:00 AM 49.6°F9.8°C 48.0°F8.9°C 94% 9.6 mph NE15.4 kmh NE 11.8 mph19.0 kmh 29.83 in1010.2 mb 0.00 in0.0 mm 0.00 in0.0 mm 0.04 in1.0 mm
06:15 AM 49.5°F9.7°C 47.5°F8.6°C 93% 9.6 mph NE15.4 kmh NE 11.8 mph19.0 kmh 29.83 in1010.2 mb 0.00 in0.0 mm 0.00 in0.0 mm 0.04 in1.0 mm
06:30 AM 49.5°F9.7°C 47.5°F8.6°C 93% 9.6 mph NE15.4 kmh NE 11.8 mph19.0 kmh 29.80 in1009.1 mb 0.00 in0.0 mm 0.00 in0.0 mm 0.04 in1.0 mm
06:45 AM 49.3°F9.6°C 47.3°F8.5°C 93% 9.6 mph NE15.4 kmh NE 11.8 mph19.0 kmh 29.83 in1010.2 mb 0.00 in0.0 mm 0.00 in0.0 mm 0.04 in1.0 mm
07:00 AM 49.3°F9.6°C 47.3°F8.5°C 93% 9.6 mph NE15.4 kmh NE 11.8 mph19.0 kmh 29.83 in1010.2 mb 0.00 in0.0 mm 0.00 in0.0 mm 0.04 in1.0 mm
07:15 AM 49.3°F9.6°C 47.3°F8.5°C 93% 4.4 mph NE7.1 kmh NE 5.4 mph8.7 kmh 29.83 in1010.2 mb 0.00 in0.0 mm 0.00 in0.0 mm 0.04 in1.0 mm
07:30 AM 49.3°F9.6°C 47.3°F8.5°C 93% 4.4 mph NE7.1 kmh NE 5.4 mph8.7 kmh 29.83 in1010.2 mb 0.00 in0.0 mm 0.00 in0.0 mm 0.04 in1.0 mm
07:45 AM 49.3°F9.6°C 47.3°F8.5°C 93% 4.4 mph NE7.1 kmh NE 5.4 mph8.7 kmh 29.83 in1010.2 mb 0.00 in0.0 mm 0.00 in0.0 mm 0.04 in1.0 mm
08:00 AM 49.3°F9.6°C 47.1°F8.4°C 92% 4.4 mph NE7.1 kmh NE 5.4 mph8.7 kmh 29.83 in1010.2 mb 0.00 in0.0 mm 0.00 in0.0 mm 0.04 in1.0 mm
08:15 AM 49.3°F9.6°C 47.1°F8.4°C 92% 4.4 mph NE7.1 kmh NE 5.4 mph8.7 kmh 29.83 in1010.2 mb 0.00 in0.0 mm 0.00 in0.0 mm 0.04 in1.0 mm
08:30 AM 49.3°F9.6°C 47.1°F8.4°C 92% 7.6 mph ENE12.2 kmh ENE 9.3 mph15.0 kmh 29.83 in1010.2 mb 0.00 in0.0 mm 0.00 in0.0 mm 0.04 in1.0 mm
08:45 AM 49.3°F9.6°C 46.8°F8.2°C 91% 5.7 mph E9.2 kmh E 9.3 mph15.0 kmh 29.83 in1010.2 mb 0.00 in0.0 mm 0.00 in0.0 mm 0.04 in1.0 mm
09:00 AM 49.5°F9.7°C 46.9°F8.3°C 91% 5.2 mph E8.4 kmh E 6.4 mph10.3 kmh 29.83 in1010.2 mb 0.00 in0.0 mm 0.00 in0.0 mm 0.04 in1.0 mm
09:15 AM 49.6°F9.8°C 46.8°F8.2°C 90% 5.2 mph E8.4 kmh E 6.4 mph10.3 kmh 29.86 in1011.2 mb 0.00 in0.0 mm 0.00 in0.0 mm 0.04 in1.0 mm
09:30 AM 49.6°F9.8°C 46.8°F8.2°C 90% 5.2 mph E8.4 kmh E 6.4 mph10.3 kmh 29.86 in1011.2 mb 0.00 in0.0 mm 0.00 in0.0 mm 0.04 in1.0 mm
09:45 AM 50.2°F10.1°C 47.4°F8.6°C 90% 5.2 mph E8.4 kmh E 6.4 mph10.3 kmh 29.86 in1011.2 mb 0.00 in0.0 mm 0.00 in0.0 mm 0.04 in1.0 mm
10:00 AM 50.7°F10.4°C 47.6°F8.7°C 89% 7.1 mph ENE11.4 kmh ENE 8.9 mph14.3 kmh 29.86 in1011.2 mb 0.00 in0.0 mm 0.00 in0.0 mm 0.04 in1.0 mm
10:15 AM 51.1°F10.6°C 47.3°F8.5°C 87% 7.3 mph ENE11.7 kmh ENE 8.9 mph14.3 kmh 29.86 in1011.2 mb 0.00 in0.0 mm 0.00 in0.0 mm 0.04 in1.0 mm
10:30 AM 51.3°F10.7°C 47.5°F8.6°C 87% 10.5 mph NNE16.9 kmh NNE 12.9 mph20.8 kmh 29.86 in1011.2 mb 0.00 in0.0 mm 0.00 in0.0 mm 0.04 in1.0 mm
10:45 AM 51.3°F10.7°C 47.2°F8.4°C 86% 10.5 mph NNE16.9 kmh NNE 12.9 mph20.8 kmh 29.86 in1011.2 mb 0.00 in0.0 mm 0.00 in0.0 mm 0.04 in1.0 mm
11:00 AM 51.6°F10.9°C 47.3°F8.5°C 85% 10.5 mph NNE16.9 kmh NNE 12.9 mph20.8 kmh 29.86 in1011.2 mb 0.00 in0.0 mm 0.00 in0.0 mm 0.04 in1.0 mm
11:15 AM 51.3°F10.7°C 46.9°F8.3°C 85% 10.5 mph NNE16.9 kmh NNE 12.9 mph20.8 kmh 29.86 in1011.2 mb 0.00 in0.0 mm 0.00 in0.0 mm 0.04 in1.0 mm
11:30 AM 51.3°F10.7°C 47.2°F8.4°C 86% 10.5 mph NNE16.9 kmh NNE 12.9 mph20.8 kmh 29.86 in1011.2 mb 0.00 in0.0 mm 0.00 in0.0 mm 0.04 in1.0 mm
11:45 AM 51.1°F10.6°C 47.0°F8.3°C 86% 10.5 mph NNE16.9 kmh NNE 12.9 mph20.8 kmh 29.83 in1010.2 mb 0.00 in0.0 mm 0.00 in0.0 mm 0.04 in1.0 mm
12:00 PM 51.1°F10.6°C 47.3°F8.5°C 87% 10.5 mph NNE16.9 kmh NNE 12.9 mph20.8 kmh 29.83 in1010.2 mb 0.00 in0.0 mm 0.00 in0.0 mm 0.04 in1.0 mm
12:15 PM 51.1°F10.6°C 47.3°F8.5°C 87% 10.5 mph NNE16.9 kmh NNE 12.9 mph20.8 kmh 29.86 in1011.2 mb 0.00 in0.0 mm 0.00 in0.0 mm 0.04 in1.0 mm
12:30 PM 51.3°F10.7°C 47.5°F8.6°C 87% 10.5 mph NNE16.9 kmh NNE 12.9 mph20.8 kmh 29.86 in1011.2 mb 0.00 in0.0 mm 0.00 in0.0 mm 0.04 in1.0 mm
12:45 PM 51.4°F10.8°C 47.7°F8.7°C 87% 10.5 mph NNE16.9 kmh NNE 12.9 mph20.8 kmh 29.86 in1011.2 mb 0.00 in0.0 mm 0.00 in0.0 mm 0.04 in1.0 mm
01:00 PM 51.4°F10.8°C 47.7°F8.7°C 87% 10.5 mph NNE16.9 kmh NNE 12.9 mph20.8 kmh 29.83 in1010.2 mb 0.00 in0.0 mm 0.00 in0.0 mm 0.04 in1.0 mm
01:15 PM 51.6°F10.9°C 47.6°F8.7°C 86% 10.5 mph NNE16.9 kmh NNE 12.9 mph20.8 kmh 29.83 in1010.2 mb 0.00 in0.0 mm 0.00 in0.0 mm 0.04 in1.0 mm
01:30 PM 51.6°F10.9°C 47.6°F8.7°C 86% 10.5 mph NNE16.9 kmh NNE 12.9 mph20.8 kmh 29.86 in1011.2 mb 0.00 in0.0 mm 0.00 in0.0 mm 0.04 in1.0 mm
01:45 PM 51.8°F11.0°C 47.4°F8.6°C 85% 10.5 mph NNE16.9 kmh NNE 12.9 mph20.8 kmh 29.83 in1010.2 mb 0.00 in0.0 mm 0.00 in0.0 mm 0.04 in1.0 mm
02:00 PM 51.6°F10.9°C 47.3°F8.5°C 85% 11.3 mph E18.2 kmh E 14.0 mph22.5 kmh 29.86 in1011.2 mb 0.00 in0.0 mm 0.00 in0.0 mm 0.04 in1.0 mm
02:15 PM 51.6°F10.9°C 46.9°F8.3°C 84% 11.3 mph E18.2 kmh E 14.0 mph22.5 kmh 29.86 in1011.2 mb 0.00 in0.0 mm 0.00 in0.0 mm 0.04 in1.0 mm
02:30 PM 51.6°F10.9°C 46.9°F8.3°C 84% 11.3 mph E18.2 kmh E 14.0 mph22.5 kmh 29.86 in1011.2 mb 0.00 in0.0 mm 0.00 in0.0 mm 0.04 in1.0 mm
02:45 PM 51.6°F10.9°C 46.9°F8.3°C 84% 11.3 mph E18.2 kmh E 14.0 mph22.5 kmh 29.86 in1011.2 mb 0.00 in0.0 mm 0.00 in0.0 mm 0.04 in1.0 mm
03:00 PM 51.3°F10.7°C 46.6°F8.1°C 84% 11.3 mph E18.2 kmh E 14.0 mph22.5 kmh 29.83 in1010.2 mb 0.00 in0.0 mm 0.00 in0.0 mm 0.04 in1.0 mm
03:15 PM 51.1°F10.6°C 46.4°F8.0°C 84% 11.3 mph E18.2 kmh E 14.0 mph22.5 kmh 29.83 in1010.2 mb 0.00 in0.0 mm 0.00 in0.0 mm 0.04 in1.0 mm
03:30 PM 50.9°F10.5°C 46.2°F7.9°C 84% 11.3 mph E18.2 kmh E 14.0 mph22.5 kmh 29.86 in1011.2 mb 0.00 in0.0 mm 0.00 in0.0 mm 0.04 in1.0 mm
03:45 PM 50.9°F10.5°C 45.6°F7.6°C 82% 11.3 mph E18.2 kmh E 14.0 mph22.5 kmh 29.83 in1010.2 mb 0.00 in0.0 mm 0.00 in0.0 mm 0.04 in1.0 mm
04:00 PM 50.7°F10.4°C 45.4°F7.4°C 82% 11.3 mph E18.2 kmh E 14.0 mph22.5 kmh 29.86 in1011.2 mb 0.00 in0.0 mm 0.00 in0.0 mm 0.04 in1.0 mm
04:15 PM 50.5°F10.3°C 45.6°F7.6°C 83% 11.3 mph E18.2 kmh E 14.0 mph22.5 kmh 29.86 in1011.2 mb 0.00 in0.0 mm 0.00 in0.0 mm 0.04 in1.0 mm
04:30 PM 50.4°F10.2°C 45.4°F7.4°C 83% 11.3 mph E18.2 kmh E 14.0 mph22.5 kmh 29.83 in1010.2 mb 0.00 in0.0 mm 0.00 in0.0 mm 0.04 in1.0 mm
04:45 PM 50.4°F10.2°C 45.1°F7.3°C 82% 11.3 mph E18.2 kmh E 14.0 mph22.5 kmh 29.83 in1010.2 mb 0.00 in0.0 mm 0.00 in0.0 mm 0.04 in1.0 mm
05:00 PM 50.2°F10.1°C 45.2°F7.3°C 83% Calm Calm -- 29.86 in1011.2 mb 0.00 in0.0 mm 0.00 in0.0 mm 0.04 in1.0 mm
05:15 PM 50.2°F10.1°C 45.2°F7.3°C 83% Calm Calm -- 29.86 in1011.2 mb 0.00 in0.0 mm 0.00 in0.0 mm 0.04 in1.0 mm
05:30 PM 50.0°F10.0°C 44.7°F7.1°C 82% Calm Calm -- 29.86 in1011.2 mb 0.00 in0.0 mm 0.00 in0.0 mm 0.04 in1.0 mm
05:45 PM 49.8°F9.9°C 44.9°F7.2°C 83% Calm Calm -- 29.89 in1012.2 mb 0.00 in0.0 mm 0.00 in0.0 mm 0.04 in1.0 mm
06:00 PM 49.8°F9.9°C 44.5°F6.9°C 82% Calm Calm -- 29.86 in1011.2 mb 0.00 in0.0 mm 0.00 in0.0 mm 0.04 in1.0 mm
06:15 PM 49.6°F9.8°C 44.7°F7.1°C 83% Calm Calm -- 29.89 in1012.2 mb 0.00 in0.0 mm 0.00 in0.0 mm 0.04 in1.0 mm
06:30 PM 49.6°F9.8°C 44.7°F7.1°C 83% Calm Calm -- 29.86 in1011.2 mb 0.00 in0.0 mm 0.00 in0.0 mm 0.04 in1.0 mm
06:45 PM 49.5°F9.7°C 44.8°F7.1°C 84% Calm Calm -- 29.86 in1011.2 mb 0.00 in0.0 mm 0.00 in0.0 mm 0.04 in1.0 mm
07:00 PM 49.3°F9.6°C 45.0°F7.2°C 85% Calm Calm -- 29.86 in1011.2 mb 0.00 in0.0 mm 0.00 in0.0 mm 0.04 in1.0 mm
07:15 PM 49.3°F9.6°C 45.0°F7.2°C 85% Calm Calm -- 29.86 in1011.2 mb 0.00 in0.0 mm 0.00 in0.0 mm 0.04 in1.0 mm
07:30 PM 49.1°F9.5°C 45.4°F7.4°C 87% Calm Calm -- 29.86 in1011.2 mb 0.00 in0.0 mm 0.00 in0.0 mm 0.04 in1.0 mm
07:45 PM 49.1°F9.5°C 45.4°F7.4°C 87% Calm Calm -- 29.83 in1010.2 mb 0.00 in0.0 mm 0.00 in0.0 mm 0.04 in1.0 mm
08:00 PM 49.1°F9.5°C 45.4°F7.4°C 87% Calm Calm -- 29.83 in1010.2 mb 0.00 in0.0 mm 0.00 in0.0 mm 0.04 in1.0 mm
08:15 PM 49.1°F9.5°C 45.4°F7.4°C 87% Calm Calm -- 29.83 in1010.2 mb 0.00 in0.0 mm 0.00 in0.0 mm 0.04 in1.0 mm
08:30 PM 49.3°F9.6°C 45.6°F7.6°C 87% Calm Calm -- 29.86 in1011.2 mb 0.00 in0.0 mm 0.00 in0.0 mm 0.04 in1.0 mm
08:45 PM 49.3°F9.6°C 45.6°F7.6°C 87% Calm Calm -- 29.86 in1011.2 mb 0.00 in0.0 mm 0.00 in0.0 mm 0.04 in1.0 mm
09:00 PM 49.5°F9.7°C 45.8°F7.7°C 87% Calm Calm -- 29.86 in1011.2 mb 0.00 in0.0 mm 0.00 in0.0 mm 0.04 in1.0 mm
09:15 PM 49.6°F9.8°C 45.9°F7.7°C 87% Calm Calm -- 29.86 in1011.2 mb 0.00 in0.0 mm 0.00 in0.0 mm 0.04 in1.0 mm
09:30 PM 49.6°F9.8°C 45.6°F7.6°C 86% Calm Calm -- 29.86 in1011.2 mb 0.00 in0.0 mm 0.00 in0.0 mm 0.04 in1.0 mm
09:45 PM 49.6°F9.8°C 45.9°F7.7°C 87% Calm Calm -- 29.86 in1011.2 mb 0.00 in0.0 mm 0.00 in0.0 mm 0.04 in1.0 mm
10:00 PM 49.8°F9.9°C 45.8°F7.7°C 86% Calm Calm -- 29.86 in1011.2 mb 0.00 in0.0 mm 0.00 in0.0 mm 0.04 in1.0 mm
10:15 PM 50.0°F10.0°C 45.7°F7.6°C 85% Calm Calm -- 29.86 in1011.2 mb 0.00 in0.0 mm 0.00 in0.0 mm 0.04 in1.0 mm
10:30 PM 50.2°F10.1°C 45.8°F7.7°C 85% Calm Calm -- 29.83 in1010.2 mb 0.00 in0.0 mm 0.00 in0.0 mm 0.04 in1.0 mm
10:45 PM 50.2°F10.1°C 45.8°F7.7°C 85% Calm Calm -- 29.83 in1010.2 mb 0.00 in0.0 mm 0.00 in0.0 mm 0.04 in1.0 mm
11:00 PM 50.2°F10.1°C 45.8°F7.7°C 85% Calm Calm -- 29.83 in1010.2 mb 0.00 in0.0 mm 0.00 in0.0 mm 0.04 in1.0 mm
11:15 PM 50.4°F10.2°C 46.0°F7.8°C 85% Calm Calm -- 29.83 in1010.2 mb 0.00 in0.0 mm 0.00 in0.0 mm 0.04 in1.0 mm
11:30 PM 50.4°F10.2°C 46.0°F7.8°C 85% Calm Calm -- 29.83 in1010.2 mb 0.00 in0.0 mm 0.00 in0.0 mm 0.04 in1.0 mm
11:45 PM 50.4°F10.2°C 46.0°F7.8°C 85% Calm Calm -- 29.83 in1010.2 mb 0.00 in0.0 mm 0.00 in0.0 mm 0.04 in1.0 mm